createdAt,value
2022-10-16T00:01:32.106Z,13.86
2022-10-16T00:04:00.514Z,13.82
2022-10-16T00:06:28.833Z,13.84
2022-10-16T00:08:56.741Z,13.86
2022-10-16T00:11:29.952Z,13.88
2022-10-16T00:13:59.602Z,13.88
2022-10-16T00:16:27.733Z,13.89
2022-10-16T00:18:55.770Z,13.87
2022-10-16T00:21:25.340Z,13.91
2022-10-16T00:23:57.314Z,13.89
2022-10-16T00:26:25.254Z,13.89
2022-10-16T00:28:53.290Z,13.89
2022-10-16T00:31:22.249Z,13.89
2022-10-16T00:33:50.040Z,13.87
2022-10-16T00:36:19.669Z,13.86
2022-10-16T00:38:47.462Z,13.86
2022-10-16T00:41:17.048Z,13.84
2022-10-16T00:43:52.373Z,13.84
2022-10-16T00:46:22.643Z,13.83
2022-10-16T00:49:02.762Z,13.84
2022-10-16T00:51:34.036Z,13.88
2022-10-16T00:54:02.481Z,13.88
2022-10-16T00:56:30.716Z,13.91
2022-10-16T00:58:58.595Z,13.90
2022-10-16T01:01:26.451Z,13.90
2022-10-16T01:03:54.245Z,13.90
2022-10-16T01:06:29.234Z,13.90
2022-10-16T01:09:22.559Z,13.91
2022-10-16T01:12:23.201Z,13.89
2022-10-16T01:14:54.338Z,13.88
2022-10-16T01:17:33.894Z,13.86
2022-10-16T01:20:32.728Z,13.87
2022-10-16T01:23:18.286Z,13.84
2022-10-16T01:26:22.710Z,13.86
2022-10-16T01:29:00.085Z,13.87
2022-10-16T01:31:29.661Z,13.84
2022-10-16T01:34:25.301Z,13.84
2022-10-16T01:36:59.036Z,13.86
2022-10-16T01:39:28.651Z,13.86
2022-10-16T01:42:21.419Z,13.89
2022-10-16T01:44:49.491Z,13.89
2022-10-16T01:47:17.247Z,13.91
2022-10-16T01:49:45.063Z,13.92
2022-10-16T01:52:15.513Z,13.93
2022-10-16T01:54:44.508Z,13.96
2022-10-16T01:57:14.678Z,13.96
2022-10-16T01:59:48.326Z,13.98
2022-10-16T02:02:16.335Z,14.00
2022-10-16T02:04:47.937Z,13.98
2022-10-16T02:07:16.114Z,13.98
2022-10-16T02:09:43.915Z,14.00
2022-10-16T02:12:22.079Z,13.98
2022-10-16T02:14:49.857Z,13.99
2022-10-16T02:17:19.218Z,13.98
2022-10-16T02:19:47.185Z,14.01
2022-10-16T02:22:21.499Z,14.03
2022-10-16T02:24:55.238Z,14.03
2022-10-16T02:27:41.077Z,14.01
2022-10-16T02:30:10.337Z,14.02
2022-10-16T02:32:40.375Z,14.01
2022-10-16T02:35:08.473Z,14.00
2022-10-16T02:37:36.221Z,14.01
2022-10-16T02:40:04.862Z,14.00
2022-10-16T02:42:37.173Z,13.97
2022-10-16T02:45:06.134Z,13.97
2022-10-16T02:47:33.928Z,13.95
2022-10-16T02:50:01.789Z,13.95
2022-10-16T02:52:29.750Z,13.96
2022-10-16T02:54:57.731Z,13.95
2022-10-16T02:57:25.835Z,13.96
2022-10-16T02:59:53.842Z,13.91
2022-10-16T03:02:21.680Z,13.89
2022-10-16T03:04:49.398Z,13.84
2022-10-16T03:07:17.163Z,13.82
2022-10-16T03:09:45.051Z,13.82
2022-10-16T03:12:14.238Z,13.83
2022-10-16T03:14:42.346Z,13.85
2022-10-16T03:17:10.146Z,13.84
2022-10-16T03:19:38.051Z,13.82
2022-10-16T03:22:05.896Z,13.83
2022-10-16T03:24:33.588Z,13.81
2022-10-16T03:27:01.369Z,13.83
2022-10-16T03:29:31.493Z,13.83
2022-10-16T03:31:59.332Z,13.85
2022-10-16T03:34:27.690Z,13.87
2022-10-16T03:36:55.530Z,13.86
2022-10-16T03:39:23.333Z,13.81
2022-10-16T03:41:51.041Z,13.83
2022-10-16T03:44:18.856Z,13.81
2022-10-16T03:46:46.617Z,13.77
2022-10-16T03:49:14.458Z,13.77
2022-10-16T03:51:42.212Z,13.74
2022-10-16T03:54:09.937Z,13.72
2022-10-16T03:56:37.715Z,13.74
2022-10-16T03:59:05.441Z,13.72
2022-10-16T04:01:33.211Z,13.70
2022-10-16T04:04:00.974Z,13.69
2022-10-16T04:06:28.704Z,13.68
2022-10-16T04:08:56.487Z,13.67
2022-10-16T04:11:24.347Z,13.69
2022-10-16T04:13:52.114Z,13.69
2022-10-16T04:16:19.825Z,13.69
2022-10-16T04:18:47.614Z,13.72
2022-10-16T04:21:15.336Z,13.74
2022-10-16T04:23:43.877Z,13.74
2022-10-16T04:26:12.606Z,13.74
2022-10-16T04:28:40.469Z,13.77
2022-10-16T04:31:08.647Z,13.80
2022-10-16T04:33:36.377Z,13.84
2022-10-16T04:36:04.652Z,13.84
2022-10-16T04:38:32.656Z,13.81
2022-10-16T04:41:00.552Z,13.82
2022-10-16T04:45:57.070Z,13.83
2022-10-16T04:48:24.861Z,13.86
2022-10-16T04:50:54.543Z,13.90
2022-10-16T04:53:23.240Z,13.90
2022-10-16T04:55:51.154Z,13.92
2022-10-16T04:58:19.768Z,13.94
2022-10-16T05:00:48.965Z,13.94
2022-10-16T05:03:16.882Z,13.98
2022-10-16T05:05:46.617Z,13.99
2022-10-16T05:08:15.411Z,14.01
2022-10-16T05:10:46.292Z,14.01
2022-10-16T05:13:14.123Z,13.95
2022-10-16T05:15:42.102Z,13.93
2022-10-16T05:18:10.749Z,13.97
2022-10-16T05:20:38.451Z,13.94
2022-10-16T05:23:06.238Z,13.96
2022-10-16T05:25:34.033Z,13.96
2022-10-16T05:28:01.811Z,13.91
2022-10-16T05:30:29.576Z,13.87
2022-10-16T05:33:03.210Z,13.88
2022-10-16T05:35:30.962Z,13.89
2022-10-16T05:37:58.728Z,13.89
2022-10-16T05:40:26.488Z,13.88
2022-10-16T05:42:57.674Z,13.89
2022-10-16T05:45:25.503Z,13.88
2022-10-16T05:47:53.451Z,13.88
2022-10-16T05:50:21.265Z,13.83
2022-10-16T05:52:49.069Z,13.84
2022-10-16T05:55:17.668Z,13.82
2022-10-16T05:57:45.403Z,13.82
2022-10-16T06:00:13.367Z,13.84
2022-10-16T06:02:41.159Z,13.83
2022-10-16T06:05:08.917Z,13.83
2022-10-16T06:07:37.989Z,13.85
2022-10-16T06:10:06.507Z,13.84
2022-10-16T06:12:34.336Z,13.82
2022-10-16T06:15:02.065Z,13.82
2022-10-16T06:17:29.990Z,13.77
2022-10-16T06:19:57.738Z,13.77
2022-10-16T06:22:25.464Z,13.78
2022-10-16T06:24:53.223Z,13.79
2022-10-16T06:27:21.012Z,13.81
2022-10-16T06:29:48.854Z,13.83
2022-10-16T06:32:16.611Z,13.85
2022-10-16T06:34:44.383Z,13.88
2022-10-16T06:37:12.096Z,13.90
2022-10-16T06:39:39.840Z,13.90
2022-10-16T06:42:07.587Z,13.90
2022-10-16T06:44:35.348Z,13.89
2022-10-16T06:47:03.188Z,13.92
2022-10-16T06:49:31.088Z,13.94
2022-10-16T06:51:58.870Z,13.96
2022-10-16T06:54:26.596Z,14.02
2022-10-16T06:56:56.254Z,14.07
2022-10-16T06:59:24.135Z,14.13
2022-10-16T07:01:51.951Z,14.16
2022-10-16T07:04:19.873Z,14.19
2022-10-16T07:06:48.069Z,14.22
2022-10-16T07:09:15.887Z,14.25
2022-10-16T07:11:43.635Z,14.29
2022-10-16T07:14:19.042Z,14.32
2022-10-16T07:16:47.382Z,14.32
2022-10-16T07:19:16.944Z,14.31
2022-10-16T07:21:44.810Z,14.30
2022-10-16T07:24:17.436Z,14.29
2022-10-16T07:26:46.404Z,14.31
2022-10-16T07:29:19.108Z,14.34
2022-10-16T07:31:46.979Z,14.35
2022-10-16T07:34:15.731Z,14.34
2022-10-16T07:36:43.551Z,14.33
2022-10-16T07:39:11.368Z,14.33
2022-10-16T07:41:39.228Z,14.34
2022-10-16T07:44:07.110Z,14.35
2022-10-16T07:46:36.215Z,14.33
2022-10-16T07:49:05.230Z,14.36
2022-10-16T07:51:33.055Z,14.45
2022-10-16T07:54:00.901Z,14.56
2022-10-16T07:56:28.912Z,14.58
2022-10-16T07:58:58.327Z,14.61
2022-10-16T08:01:26.089Z,14.66
2022-10-16T08:03:54.132Z,14.73
2022-10-16T12:19:21.936Z,22.24
2022-10-16T12:21:49.728Z,22.07
2022-10-16T12:24:33.577Z,21.97
2022-10-16T12:27:01.513Z,21.88
2022-10-16T12:29:46.518Z,21.80
2022-10-16T12:32:47.319Z,21.82
2022-10-16T12:35:24.259Z,21.94
2022-10-16T12:37:52.648Z,22.06
2022-10-16T12:40:33.450Z,22.08
2022-10-16T12:43:01.422Z,22.03
2022-10-16T12:45:33.974Z,22.06
2022-10-16T12:48:03.223Z,22.20
2022-10-16T12:50:33.970Z,22.31
2022-10-16T12:53:02.617Z,22.39
2022-10-16T12:55:36.173Z,22.53
2022-10-16T12:58:46.914Z,22.62
2022-10-16T13:01:19.898Z,22.66
2022-10-16T13:03:50.136Z,22.67
2022-10-16T13:06:26.659Z,22.74
2022-10-16T13:08:57.521Z,22.80
2022-10-16T13:11:58.995Z,22.82
2022-10-16T13:14:45.079Z,22.79
2022-10-16T13:17:39.332Z,22.80
2022-10-16T13:20:13.019Z,22.75
2022-10-16T13:23:02.078Z,22.74
2022-10-16T13:25:33.277Z,22.72
2022-10-16T13:28:06.756Z,22.62
2022-10-16T13:30:40.444Z,22.51
2022-10-16T13:33:31.058Z,22.44
2022-10-16T13:35:59.029Z,22.39
2022-10-16T13:38:36.790Z,22.39
2022-10-16T13:41:18.146Z,22.40
2022-10-16T13:43:48.630Z,22.40
2022-10-16T13:46:20.533Z,22.36
2022-10-16T13:49:12.867Z,22.39
2022-10-16T13:51:40.667Z,22.39
2022-10-16T13:54:13.612Z,22.40
2022-10-16T13:56:42.441Z,22.37
2022-10-16T13:59:25.774Z,22.25
2022-10-16T14:01:56.025Z,22.18
2022-10-16T14:04:23.840Z,22.07
2022-10-16T14:06:52.262Z,21.96
2022-10-16T14:09:28.484Z,21.89
2022-10-16T14:12:01.475Z,21.76
2022-10-16T14:14:31.480Z,21.69
2022-10-16T14:16:59.245Z,21.67
2022-10-16T14:19:30.698Z,21.71
2022-10-16T14:21:58.632Z,21.68
2022-10-16T14:24:32.051Z,21.65
2022-10-16T14:27:00.035Z,21.61
2022-10-16T14:29:28.680Z,21.58
2022-10-16T14:32:03.433Z,21.59
2022-10-16T14:34:34.864Z,21.53
2022-10-16T14:37:21.637Z,21.52
2022-10-16T14:39:53.406Z,21.55
2022-10-16T14:42:22.196Z,21.55
2022-10-16T14:44:50.879Z,21.54
2022-10-16T14:47:24.622Z,21.52
2022-10-16T14:49:58.036Z,21.52
2022-10-16T14:52:25.771Z,21.55
2022-10-16T14:54:56.769Z,21.53
2022-10-16T14:57:26.263Z,21.55
2022-10-16T14:59:54.183Z,21.53
2022-10-16T15:02:33.254Z,21.49
2022-10-16T15:05:06.700Z,21.49
2022-10-16T15:07:34.459Z,21.47
2022-10-16T15:10:02.331Z,21.44
2022-10-16T15:12:30.143Z,21.40
2022-10-16T15:14:57.885Z,21.30
2022-10-16T15:17:25.880Z,21.20
2022-10-16T15:19:53.773Z,21.08
2022-10-16T15:22:21.588Z,21.03
2022-10-16T15:24:49.424Z,21.00
2022-10-16T15:27:17.223Z,20.91
2022-10-16T15:29:45.019Z,20.83
2022-10-16T15:32:12.950Z,20.73
2022-10-16T15:34:40.788Z,20.69
2022-10-16T15:37:08.535Z,20.60
2022-10-16T15:39:41.229Z,20.55
2022-10-16T15:42:09.581Z,20.49
2022-10-16T15:44:37.460Z,20.42
2022-10-16T15:47:05.285Z,20.37
2022-10-16T15:49:32.968Z,20.29
2022-10-16T15:52:00.902Z,20.21
2022-10-16T15:54:28.655Z,20.12
2022-10-16T15:56:56.634Z,20.03
2022-10-16T15:59:24.466Z,20.00
2022-10-16T16:01:52.435Z,19.92
2022-10-16T16:07:09.595Z,19.83
2022-10-16T16:09:37.429Z,19.72
2022-10-16T16:12:05.640Z,19.62
2022-10-16T16:14:33.600Z,19.53
2022-10-16T16:17:01.409Z,19.42
2022-10-16T16:19:29.348Z,19.35
2022-10-16T16:21:57.272Z,19.26
2022-10-16T16:24:25.140Z,19.21
2022-10-16T16:26:53.133Z,19.20
2022-10-16T16:29:20.909Z,19.19
2022-10-16T16:31:49.203Z,19.15
2022-10-16T16:34:17.042Z,19.10
2022-10-16T16:36:44.845Z,19.05
2022-10-16T16:39:12.904Z,19.00
2022-10-16T16:41:40.744Z,18.94
2022-10-16T16:44:10.718Z,18.88
2022-10-16T16:46:38.459Z,18.79
2022-10-16T16:49:06.271Z,18.73
2022-10-16T16:51:37.014Z,18.70
2022-10-16T16:54:09.033Z,18.64
2022-10-16T16:56:36.846Z,18.57
2022-10-16T16:59:04.765Z,18.49
2022-10-16T17:01:33.445Z,18.43
2022-10-16T17:04:01.716Z,18.36
2022-10-16T17:06:31.554Z,18.32
2022-10-16T17:08:59.698Z,18.31
2022-10-16T17:11:28.342Z,18.23
2022-10-16T17:13:57.537Z,18.12
2022-10-16T17:16:36.529Z,18.04
2022-10-16T17:19:05.569Z,17.94
2022-10-16T17:21:34.124Z,17.89
2022-10-16T17:24:02.496Z,17.81
2022-10-16T17:26:30.293Z,17.75
2022-10-16T17:28:59.924Z,17.68
2022-10-16T17:31:29.799Z,17.62
2022-10-16T17:33:57.793Z,17.56
2022-10-16T17:36:25.750Z,17.46
2022-10-16T17:38:53.516Z,17.41
2022-10-16T17:41:25.234Z,17.36
2022-10-16T17:43:53.400Z,17.30
2022-10-16T17:46:22.315Z,17.24
2022-10-16T17:48:51.606Z,17.18
2022-10-16T17:51:20.584Z,17.10
2022-10-16T17:53:55.540Z,17.04
2022-10-16T17:56:25.324Z,16.99
2022-10-16T17:58:57.886Z,16.93
2022-10-16T18:01:30.139Z,16.88
2022-10-16T18:04:02.987Z,16.81
2022-10-16T18:06:30.833Z,16.74
2022-10-16T18:08:58.805Z,16.68
2022-10-16T18:11:26.633Z,16.62
2022-10-16T18:13:57.729Z,16.59
2022-10-16T18:16:25.856Z,16.51
2022-10-16T18:18:53.674Z,16.45
2022-10-16T18:21:21.561Z,16.44
2022-10-16T18:23:51.893Z,16.39
2022-10-16T18:26:20.521Z,16.33
2022-10-16T18:28:48.424Z,16.27
2022-10-16T18:31:17.103Z,16.23
2022-10-16T18:33:54.355Z,16.16
2022-10-16T18:36:27.422Z,16.10
2022-10-16T18:38:55.119Z,16.04
2022-10-16T18:41:23.108Z,16.01
2022-10-16T18:43:50.838Z,15.96
2022-10-16T18:46:20.385Z,15.90
2022-10-16T18:48:48.579Z,15.85
2022-10-16T18:51:30.907Z,15.83
2022-10-16T18:54:01.266Z,15.77
2022-10-16T18:56:30.279Z,15.73
2022-10-16T18:59:00.472Z,15.68
2022-10-16T19:01:29.637Z,15.64
2022-10-16T19:04:02.681Z,15.60
2022-10-16T19:06:30.594Z,15.55
2022-10-16T19:08:58.500Z,15.53
2022-10-16T19:11:26.687Z,15.47
2022-10-16T19:13:56.194Z,15.43
2022-10-16T19:16:26.331Z,15.40
2022-10-16T19:18:55.447Z,15.36
2022-10-16T19:21:23.229Z,15.34
2022-10-16T19:23:55.051Z,15.29
2022-10-16T19:26:23.089Z,15.24
2022-10-16T19:28:51.945Z,15.19
2022-10-16T19:31:21.504Z,15.15
2022-10-16T19:33:51.905Z,15.12
2022-10-16T19:36:27.008Z,15.10
2022-10-16T19:38:59.225Z,15.07
2022-10-16T19:41:27.124Z,15.04
2022-10-16T19:43:55.272Z,15.02
2022-10-16T19:46:25.497Z,14.99
2022-10-16T19:48:59.915Z,15.00
2022-10-16T19:51:27.914Z,14.96
2022-10-16T19:53:57.650Z,14.91
2022-10-16T19:56:26.206Z,14.89
2022-10-16T19:58:54.290Z,14.85
2022-10-16T20:01:22.143Z,14.81
2022-10-16T20:03:50.199Z,14.78
2022-10-16T20:06:18.213Z,14.76
2022-10-16T20:08:46.923Z,14.73
2022-10-16T20:11:22.385Z,14.68
2022-10-16T20:13:50.303Z,14.66
2022-10-16T20:16:20.191Z,14.65
2022-10-16T20:18:49.014Z,14.63
2022-10-16T20:21:18.717Z,14.61
2022-10-16T20:23:49.656Z,14.61
2022-10-16T20:26:18.085Z,14.59
2022-10-16T20:28:45.908Z,14.60
2022-10-16T20:31:19.411Z,14.62
2022-10-16T20:33:47.148Z,14.68
2022-10-16T20:36:15.724Z,14.70
2022-10-16T20:38:43.859Z,14.65
2022-10-16T20:41:11.922Z,14.59
2022-10-16T20:43:44.686Z,14.57
2022-10-16T20:46:16.404Z,14.58
2022-10-16T20:48:48.003Z,14.54
2022-10-16T20:51:17.825Z,14.54
2022-10-16T20:53:47.610Z,14.49
2022-10-16T20:56:17.094Z,14.47
2022-10-16T20:58:45.433Z,14.45
2022-10-16T21:01:18.284Z,14.42
2022-10-16T21:03:46.391Z,14.36
2022-10-16T21:06:14.094Z,14.36
2022-10-16T21:08:42.831Z,14.36
2022-10-16T21:11:12.289Z,14.31
2022-10-16T21:13:40.872Z,14.34
2022-10-16T21:16:09.252Z,14.32
2022-10-16T21:18:39.684Z,14.31
2022-10-16T21:21:09.956Z,14.29
2022-10-16T21:23:37.898Z,14.26
2022-10-16T21:26:05.663Z,14.22
2022-10-16T21:28:33.702Z,14.20
2022-10-16T21:31:03.139Z,14.19
2022-10-16T21:33:32.968Z,14.16
2022-10-16T21:36:02.784Z,14.13
2022-10-16T21:38:30.457Z,14.09
2022-10-16T21:40:58.159Z,14.08
2022-10-16T21:43:25.918Z,14.06
2022-10-16T21:45:53.647Z,14.03
2022-10-16T21:48:21.414Z,14.02
2022-10-16T21:50:49.674Z,14.00
2022-10-16T21:53:17.374Z,13.98
2022-10-16T21:55:45.155Z,13.94
2022-10-16T21:58:12.899Z,13.92
2022-10-16T22:00:40.616Z,13.86
2022-10-16T22:03:08.370Z,13.81
2022-10-16T22:05:36.077Z,13.77
2022-10-16T22:08:03.922Z,13.74
2022-10-16T22:10:32.580Z,13.77
2022-10-16T22:13:00.312Z,13.74
2022-10-16T22:15:28.142Z,13.71
2022-10-16T22:17:55.840Z,13.72
2022-10-16T22:20:23.595Z,13.68
2022-10-16T22:22:51.263Z,13.65
2022-10-16T22:25:19.014Z,13.64
2022-10-16T22:27:46.725Z,13.63
2022-10-16T22:30:14.482Z,13.59
2022-10-16T22:32:42.197Z,13.60
2022-10-16T22:35:10.215Z,13.60
2022-10-16T22:37:37.955Z,13.58
2022-10-16T22:40:05.982Z,13.55
2022-10-16T22:42:33.694Z,13.52
2022-10-16T22:45:01.437Z,13.49
2022-10-16T22:47:29.764Z,13.50
2022-10-16T22:49:57.830Z,13.47
2022-10-16T22:52:25.919Z,13.43
2022-10-16T22:54:53.843Z,13.45
2022-10-16T22:57:21.598Z,13.42
2022-10-16T22:59:49.906Z,13.38
2022-10-16T23:02:17.680Z,13.38
2022-10-16T23:04:45.408Z,13.41
2022-10-16T23:07:13.144Z,13.39
2022-10-16T23:09:41.087Z,13.36
2022-10-16T23:12:08.854Z,13.35
2022-10-16T23:14:36.600Z,13.33
2022-10-16T23:17:04.474Z,13.30
2022-10-16T23:19:32.240Z,13.28
2022-10-16T23:21:59.988Z,13.25
2022-10-16T23:24:27.824Z,13.24
2022-10-16T23:26:55.527Z,13.22
2022-10-16T23:29:23.257Z,13.18
2022-10-16T23:31:50.965Z,13.14
2022-10-16T23:34:18.799Z,13.16
2022-10-16T23:36:46.582Z,13.20
2022-10-16T23:39:14.304Z,13.16
2022-10-16T23:41:42.047Z,13.12
2022-10-16T23:44:10.044Z,13.07
2022-10-16T23:46:37.933Z,13.09
2022-10-16T23:49:05.727Z,13.12
2022-10-16T23:51:33.510Z,13.09
2022-10-16T23:54:01.228Z,13.06
2022-10-16T23:56:28.966Z,13.07
2022-10-16T23:58:56.741Z,13.07
